Terminal Aerodrome Forecast
Issued by NWS

Current Version | Previous Version | Text Only | Print | Product List | Glossary On
Versions: 1 2 3 4 5 6 7 8 9 10 11 12 13 14 15 16 17 18 19 20
000
FTUS41 KALY 012020 AAB
TAFPSF
TAF AMD
KPSF 012020Z 0120/0218 20010G18KT P6SM VCSH SCT025 OVC040
      TEMPO 0120/0122 3SM -SN BR BKN025
     FM012200 20007KT 1SM -SN BR OVC015
     FM020400 22006KT 3SM -SN BR OVC020
     FM020700 26008KT P6SM VCSH OVC025
     FM021200 28013G22KT P6SM OVC030=

USA.gov is the U.S. government's official web portal to all federal, state and local government web resources and services.